sensor_id;sensor_type;location;lat;lon;timestamp;pressure;altitude;pressure_sealevel;temperature;humidity
63700;BME280;49845;47.130;142.766;2022-07-12T00:02:13;100507.00;;;18.15;85.55
63700;BME280;49845;47.130;142.766;2022-07-12T00:04:45;100499.38;;;18.27;84.54
63700;BME280;49845;47.130;142.766;2022-07-12T00:07:16;100499.53;;;18.43;84.53
63700;BME280;49845;47.130;142.766;2022-07-12T00:09:47;100507.06;;;18.52;83.75
63700;BME280;49845;47.130;142.766;2022-07-12T00:12:18;100506.13;;;18.53;83.35
63700;BME280;49845;47.130;142.766;2022-07-12T00:14:49;100504.63;;;18.67;84.22
63700;BME280;49845;47.130;142.766;2022-07-12T00:17:19;100496.47;;;18.71;83.63
63700;BME280;49845;47.130;142.766;2022-07-12T00:19:52;100501.59;;;18.76;82.90
63700;BME280;49845;47.130;142.766;2022-07-12T00:22:22;100502.44;;;18.77;82.79
63700;BME280;49845;47.130;142.766;2022-07-12T00:24:56;100493.28;;;18.84;82.88
63700;BME280;49845;47.130;142.766;2022-07-12T00:27:27;100493.88;;;18.90;82.26
63700;BME280;49845;47.130;142.766;2022-07-12T00:29:59;100486.13;;;19.05;82.16
63700;BME280;49845;47.130;142.766;2022-07-12T00:32:30;100454.03;;;19.11;81.69
63700;BME280;49845;47.130;142.766;2022-07-12T00:35:03;100484.03;;;19.48;81.53
63700;BME280;49845;47.130;142.766;2022-07-12T00:37:34;100468.13;;;19.65;81.14
63700;BME280;49845;47.130;142.766;2022-07-12T00:40:06;100467.91;;;20.04;81.87
63700;BME280;49845;47.130;142.766;2022-07-12T00:42:37;100473.28;;;20.36;80.23
63700;BME280;49845;47.130;142.766;2022-07-12T00:45:09;100473.28;;;20.36;77.88
63700;BME280;49845;47.130;142.766;2022-07-12T00:47:42;100468.34;;;20.46;77.19
63700;BME280;49845;47.130;142.766;2022-07-12T00:50:15;100467.38;;;20.64;77.41
63700;BME280;49845;47.130;142.766;2022-07-12T00:52:47;100461.91;;;20.99;78.09
63700;BME280;49845;47.130;142.766;2022-07-12T00:55:20;100432.94;;;20.95;76.16
63700;BME280;49845;47.130;142.766;2022-07-12T00:57:53;100454.69;;;21.17;75.05
63700;BME280;49845;47.130;142.766;2022-07-12T01:00:25;100446.25;;;21.25;75.49
63700;BME280;49845;47.130;142.766;2022-07-12T01:02:57;100459.00;;;21.34;74.60
63700;BME280;49845;47.130;142.766;2022-07-12T01:05:30;100463.56;;;21.16;73.92
63700;BME280;49845;47.130;142.766;2022-07-12T01:08:01;100455.81;;;20.97;74.98
63700;BME280;49845;47.130;142.766;2022-07-12T01:10:32;100440.16;;;20.77;75.22
63700;BME280;49845;47.130;142.766;2022-07-12T01:13:03;100457.25;;;21.03;76.54
63700;BME280;49845;47.130;142.766;2022-07-12T01:15:33;100452.63;;;21.22;76.59
63700;BME280;49845;47.130;142.766;2022-07-12T01:18:05;100462.03;;;21.28;75.11
63700;BME280;49845;47.130;142.766;2022-07-12T01:20:37;100451.50;;;21.57;76.22
63700;BME280;49845;47.130;142.766;2022-07-12T01:23:10;100452.53;;;21.98;76.59
63700;BME280;49845;47.130;142.766;2022-07-12T01:25:41;100455.28;;;22.42;76.24
63700;BME280;49845;47.130;142.766;2022-07-12T01:28:12;100454.88;;;22.48;72.94
63700;BME280;49845;47.130;142.766;2022-07-12T01:30:42;100451.81;;;22.54;72.35
63700;BME280;49845;47.130;142.766;2022-07-12T01:33:14;100445.63;;;22.68;73.94
63700;BME280;49845;47.130;142.766;2022-07-12T01:35:46;100448.00;;;22.72;72.34
63700;BME280;49845;47.130;142.766;2022-07-12T01:38:19;100440.63;;;22.34;71.53
63700;BME280;49845;47.130;142.766;2022-07-12T01:40:49;100443.84;;;22.25;72.82
63700;BME280;49845;47.130;142.766;2022-07-12T01:43:20;100435.47;;;22.46;73.83
63700;BME280;49845;47.130;142.766;2022-07-12T01:45:51;100435.22;;;22.77;73.58
63700;BME280;49845;47.130;142.766;2022-07-12T01:48:22;100430.50;;;22.95;70.92
63700;BME280;49845;47.130;142.766;2022-07-12T01:50:52;100430.53;;;23.22;71.53
63700;BME280;49845;47.130;142.766;2022-07-12T01:53:26;100415.88;;;23.55;71.17
63700;BME280;49845;47.130;142.766;2022-07-12T01:55:57;100419.41;;;23.68;71.38
63700;BME280;49845;47.130;142.766;2022-07-12T01:58:27;100417.88;;;24.04;71.09
63700;BME280;49845;47.130;142.766;2022-07-12T02:00:58;100383.91;;;24.06;71.60
63700;BME280;49845;47.130;142.766;2022-07-12T02:03:29;100409.25;;;24.50;71.11
63700;BME280;49845;47.130;142.766;2022-07-12T02:05:59;100405.72;;;24.63;68.58
63700;BME280;49845;47.130;142.766;2022-07-12T02:08:31;100406.38;;;24.53;69.72
63700;BME280;49845;47.130;142.766;2022-07-12T02:11:02;100402.81;;;24.66;69.71
63700;BME280;49845;47.130;142.766;2022-07-12T02:13:33;100398.72;;;24.73;68.70
63700;BME280;49845;47.130;142.766;2022-07-12T02:16:04;100378.59;;;24.80;70.11
63700;BME280;49845;47.130;142.766;2022-07-12T02:18:34;100388.97;;;25.09;69.83
63700;BME280;49845;47.130;142.766;2022-07-12T02:21:05;100392.53;;;25.21;68.79
63700;BME280;49845;47.130;142.766;2022-07-12T02:23:37;100379.81;;;25.35;68.67
63700;BME280;49845;47.130;142.766;2022-07-12T02:26:08;100390.81;;;25.55;69.14
63700;BME280;49845;47.130;142.766;2022-07-12T02:28:38;100386.00;;;25.71;68.42
63700;BME280;49845;47.130;142.766;2022-07-12T02:31:09;100392.25;;;25.94;68.00
63700;BME280;49845;47.130;142.766;2022-07-12T02:33:40;100384.34;;;26.04;67.77
63700;BME280;49845;47.130;142.766;2022-07-12T02:36:11;100387.97;;;26.37;67.24
63700;BME280;49845;47.130;142.766;2022-07-12T02:38:43;100385.53;;;26.45;64.64
63700;BME280;49845;47.130;142.766;2022-07-12T02:41:14;100336.16;;;25.93;63.54
63700;BME280;49845;47.130;142.766;2022-07-12T02:43:44;100376.50;;;25.78;64.79
63700;BME280;49845;47.130;142.766;2022-07-12T02:46:15;100381.63;;;25.81;67.13
63700;BME280;49845;47.130;142.766;2022-07-12T02:48:45;100378.22;;;25.79;65.96
63700;BME280;49845;47.130;142.766;2022-07-12T02:51:16;100364.09;;;25.77;66.40
63700;BME280;49845;47.130;142.766;2022-07-12T02:53:48;100369.75;;;25.97;65.51
63700;BME280;49845;47.130;142.766;2022-07-12T02:56:19;100369.03;;;26.06;65.79
63700;BME280;49845;47.130;142.766;2022-07-12T02:58:49;100344.16;;;26.27;66.90
63700;BME280;49845;47.130;142.766;2022-07-12T03:01:20;100362.41;;;26.44;65.06
63700;BME280;49845;47.130;142.766;2022-07-12T03:03:50;100366.28;;;26.40;65.68
63700;BME280;49845;47.130;142.766;2022-07-12T03:06:21;100373.13;;;26.44;65.47
63700;BME280;49845;47.130;142.766;2022-07-12T03:08:53;100312.78;;;26.06;65.11
63700;BME280;49845;47.130;142.766;2022-07-12T03:11:24;100360.19;;;26.38;65.18
63700;BME280;49845;47.130;142.766;2022-07-12T03:13:54;100362.13;;;26.47;65.20
63700;BME280;49845;47.130;142.766;2022-07-12T03:16:25;100356.06;;;26.56;65.10
63700;BME280;49845;47.130;142.766;2022-07-12T03:18:55;100353.63;;;26.42;64.03
63700;BME280;49845;47.130;142.766;2022-07-12T03:21:26;100348.75;;;26.36;65.89
63700;BME280;49845;47.130;142.766;2022-07-12T03:23:58;100340.22;;;26.42;66.60
63700;BME280;49845;47.130;142.766;2022-07-12T03:26:29;100347.06;;;26.35;65.85
63700;BME280;49845;47.130;142.766;2022-07-12T03:29:00;100340.84;;;26.34;66.50
63700;BME280;49845;47.130;142.766;2022-07-12T03:31:31;100335.41;;;26.24;66.46
63700;BME280;49845;47.130;142.766;2022-07-12T03:34:01;100330.78;;;26.15;64.59
63700;BME280;49845;47.130;142.766;2022-07-12T03:36:32;100331.88;;;26.13;65.19
63700;BME280;49845;47.130;142.766;2022-07-12T03:39:04;100331.50;;;26.29;65.55
63700;BME280;49845;47.130;142.766;2022-07-12T03:41:35;100332.66;;;26.47;66.93
63700;BME280;49845;47.130;142.766;2022-07-12T03:44:06;100332.66;;;26.58;65.97
63700;BME280;49845;47.130;142.766;2022-07-12T03:46:36;100337.47;;;26.76;66.51
63700;BME280;49845;47.130;142.766;2022-07-12T03:49:07;100328.41;;;26.88;66.53
63700;BME280;49845;47.130;142.766;2022-07-12T03:51:38;100323.00;;;26.99;64.36
63700;BME280;49845;47.130;142.766;2022-07-12T03:54:10;100323.47;;;27.04;64.82
63700;BME280;49845;47.130;142.766;2022-07-12T03:56:41;100325.34;;;27.25;65.54
63700;BME280;49845;47.130;142.766;2022-07-12T03:59:28;100321.09;;;26.90;64.00
63700;BME280;49845;47.130;142.766;2022-07-12T04:01:59;100315.81;;;26.67;65.79
63700;BME280;49845;47.130;142.766;2022-07-12T04:04:30;100317.00;;;26.75;65.87
63700;BME280;49845;47.130;142.766;2022-07-12T04:07:00;100313.59;;;26.73;64.79
63700;BME280;49845;47.130;142.766;2022-07-12T04:09:33;100311.75;;;26.84;64.13
63700;BME280;49845;47.130;142.766;2022-07-12T04:12:04;100313.06;;;26.90;64.00
63700;BME280;49845;47.130;142.766;2022-07-12T04:14:35;100319.06;;;26.82;64.28
63700;BME280;49845;47.130;142.766;2022-07-12T04:17:06;100315.00;;;26.88;64.52
63700;BME280;49845;47.130;142.766;2022-07-12T04:19:37;100306.50;;;26.83;64.72
63700;BME280;49845;47.130;142.766;2022-07-12T04:22:07;100307.66;;;27.01;65.21
63700;BME280;49845;47.130;142.766;2022-07-12T04:24:40;100316.06;;;27.29;65.09
63700;BME280;49845;47.130;142.766;2022-07-12T04:27:10;100297.56;;;27.57;65.38
63700;BME280;49845;47.130;142.766;2022-07-12T04:29:41;100316.16;;;27.48;63.51
63700;BME280;49845;47.130;142.766;2022-07-12T04:32:11;100315.88;;;27.09;64.27
63700;BME280;49845;47.130;142.766;2022-07-12T04:34:42;100307.84;;;26.56;66.06
63700;BME280;49845;47.130;142.766;2022-07-12T04:37:13;100319.50;;;25.89;67.67
63700;BME280;49845;47.130;142.766;2022-07-12T04:39:45;100282.00;;;25.09;68.68
63700;BME280;49845;47.130;142.766;2022-07-12T04:42:15;100313.31;;;24.95;69.52
63700;BME280;49845;47.130;142.766;2022-07-12T04:44:46;100278.44;;;24.62;70.55
63700;BME280;49845;47.130;142.766;2022-07-12T04:47:17;100322.75;;;24.88;70.16
63700;BME280;49845;47.130;142.766;2022-07-12T04:49:47;100296.03;;;24.88;70.09
63700;BME280;49845;47.130;142.766;2022-07-12T04:52:18;100322.41;;;25.17;67.49
63700;BME280;49845;47.130;142.766;2022-07-12T04:54:50;100320.59;;;24.93;66.96
63700;BME280;49845;47.130;142.766;2022-07-12T04:57:21;100307.75;;;24.50;68.94
63700;BME280;49845;47.130;142.766;2022-07-12T04:59:51;100341.28;;;24.18;69.24
63700;BME280;49845;47.130;142.766;2022-07-12T05:02:22;100340.34;;;23.93;70.11
63700;BME280;49845;47.130;142.766;2022-07-12T05:04:52;100320.94;;;23.65;69.14
63700;BME280;49845;47.130;142.766;2022-07-12T05:07:23;100343.56;;;23.47;70.12
63700;BME280;49845;47.130;142.766;2022-07-12T05:09:55;100354.00;;;23.50;70.39
63700;BME280;49845;47.130;142.766;2022-07-12T05:12:26;100350.13;;;23.29;71.03
63700;BME280;49845;47.130;142.766;2022-07-12T05:14:56;100352.69;;;23.17;70.62
63700;BME280;49845;47.130;142.766;2022-07-12T05:17:27;100363.25;;;22.92;71.23
63700;BME280;49845;47.130;142.766;2022-07-12T05:19:57;100366.19;;;22.74;72.52
63700;BME280;49845;47.130;142.766;2022-07-12T05:22:28;100367.91;;;22.61;73.34
63700;BME280;49845;47.130;142.766;2022-07-12T05:25:00;100365.06;;;22.64;73.38
63700;BME280;49845;47.130;142.766;2022-07-12T05:27:31;100330.38;;;22.24;71.85
63700;BME280;49845;47.130;142.766;2022-07-12T05:30:01;100367.78;;;22.21;72.13
63700;BME280;49845;47.130;142.766;2022-07-12T05:32:32;100365.16;;;22.07;73.39
63700;BME280;49845;47.130;142.766;2022-07-12T05:35:03;100353.06;;;22.01;74.29
63700;BME280;49845;47.130;142.766;2022-07-12T05:37:34;100373.88;;;22.23;74.47
63700;BME280;49845;47.130;142.766;2022-07-12T05:40:07;100368.13;;;22.44;74.03
63700;BME280;49845;47.130;142.766;2022-07-12T05:42:38;100376.88;;;22.46;73.03
63700;BME280;49845;47.130;142.766;2022-07-12T05:45:10;100369.03;;;22.44;73.13
63700;BME280;49845;47.130;142.766;2022-07-12T05:47:40;100367.72;;;22.64;74.03
63700;BME280;49845;47.130;142.766;2022-07-12T05:50:11;100367.78;;;22.77;71.87
63700;BME280;49845;47.130;142.766;2022-07-12T05:52:41;100376.63;;;22.77;71.22
63700;BME280;49845;47.130;142.766;2022-07-12T05:55:30;100373.19;;;22.75;71.66
63700;BME280;49845;47.130;142.766;2022-07-12T05:58:01;100379.72;;;22.57;71.48
63700;BME280;49845;47.130;142.766;2022-07-12T06:00:32;100359.81;;;22.07;72.57
63700;BME280;49845;47.130;142.766;2022-07-12T06:03:03;100384.59;;;21.93;73.40
63700;BME280;49845;47.130;142.766;2022-07-12T06:05:34;100378.63;;;21.89;74.57
63700;BME280;49845;47.130;142.766;2022-07-12T06:08:05;100377.50;;;21.79;74.09
63700;BME280;49845;47.130;142.766;2022-07-12T06:10:37;100388.13;;;21.65;74.89
63700;BME280;49845;47.130;142.766;2022-07-12T06:13:08;100379.34;;;21.48;74.46
63700;BME280;49845;47.130;142.766;2022-07-12T06:15:38;100383.16;;;21.28;75.65
63700;BME280;49845;47.130;142.766;2022-07-12T06:18:09;100387.88;;;21.23;76.34
63700;BME280;49845;47.130;142.766;2022-07-12T06:20:40;100397.25;;;21.15;76.77
63700;BME280;49845;47.130;142.766;2022-07-12T06:23:10;100392.47;;;21.05;77.00
63700;BME280;49845;47.130;142.766;2022-07-12T06:25:43;100395.56;;;20.98;77.73
63700;BME280;49845;47.130;142.766;2022-07-12T06:28:22;100396.94;;;20.89;77.25
63700;BME280;49845;47.130;142.766;2022-07-12T06:30:52;100412.22;;;20.70;76.86
63700;BME280;49845;47.130;142.766;2022-07-12T06:33:23;100399.69;;;20.40;77.91
63700;BME280;49845;47.130;142.766;2022-07-12T06:35:54;100413.25;;;20.34;78.08
63700;BME280;49845;47.130;142.766;2022-07-12T06:38:24;100401.53;;;20.22;77.96
63700;BME280;49845;47.130;142.766;2022-07-12T06:40:56;100389.34;;;20.02;78.83
63700;BME280;49845;47.130;142.766;2022-07-12T06:43:27;100412.72;;;20.11;78.79
63700;BME280;49845;47.130;142.766;2022-07-12T06:45:58;100420.91;;;20.07;79.08
63700;BME280;49845;47.130;142.766;2022-07-12T06:48:28;100414.31;;;19.98;79.26
63700;BME280;49845;47.130;142.766;2022-07-12T06:50:59;100420.59;;;19.79;79.65
63700;BME280;49845;47.130;142.766;2022-07-12T06:53:30;100416.78;;;19.68;80.17
63700;BME280;49845;47.130;142.766;2022-07-12T06:56:02;100414.78;;;19.54;80.61
63700;BME280;49845;47.130;142.766;2022-07-12T06:58:33;100415.75;;;19.53;81.22
63700;BME280;49845;47.130;142.766;2022-07-12T07:01:04;100384.09;;;19.32;81.12
63700;BME280;49845;47.130;142.766;2022-07-12T07:03:34;100420.59;;;19.45;81.25
63700;BME280;49845;47.130;142.766;2022-07-12T07:06:05;100429.28;;;19.47;81.88
63700;BME280;49845;47.130;142.766;2022-07-12T07:08:36;100434.75;;;19.44;81.52
63700;BME280;49845;47.130;142.766;2022-07-12T07:11:08;100430.22;;;19.28;82.21
63700;BME280;49845;47.130;142.766;2022-07-12T07:13:39;100432.56;;;19.17;82.46
63700;BME280;49845;47.130;142.766;2022-07-12T07:16:18;100424.84;;;19.12;82.55
63700;BME280;49845;47.130;142.766;2022-07-12T07:18:52;100399.97;;;18.98;82.62
63700;BME280;49845;47.130;142.766;2022-07-12T07:21:22;100434.13;;;19.38;82.67
63700;BME280;49845;47.130;142.766;2022-07-12T07:23:54;100431.19;;;19.45;82.28
63700;BME280;49845;47.130;142.766;2022-07-12T07:26:26;100431.47;;;19.38;81.63
63700;BME280;49845;47.130;142.766;2022-07-12T07:28:57;100434.72;;;19.09;81.66
63700;BME280;49845;47.130;142.766;2022-07-12T07:31:44;100440.38;;;19.01;82.34
63700;BME280;49845;47.130;142.766;2022-07-12T07:34:15;100441.72;;;18.72;82.68
63700;BME280;49845;47.130;142.766;2022-07-12T07:36:45;100441.19;;;18.46;83.96
63700;BME280;49845;47.130;142.766;2022-07-12T07:39:16;100421.56;;;18.13;85.44
63700;BME280;49845;47.130;142.766;2022-07-12T07:41:49;100453.00;;;18.19;85.89
63700;BME280;49845;47.130;142.766;2022-07-12T07:44:20;100442.84;;;18.09;86.20
63700;BME280;49845;47.130;142.766;2022-07-12T07:46:59;100458.47;;;17.95;86.82
63700;BME280;49845;47.130;142.766;2022-07-12T07:49:30;100454.63;;;17.82;87.33
63700;BME280;49845;47.130;142.766;2022-07-12T07:52:00;100446.28;;;17.71;88.09
63700;BME280;49845;47.130;142.766;2022-07-12T07:54:31;100449.13;;;17.66;88.32
63700;BME280;49845;47.130;142.766;2022-07-12T07:57:03;100447.06;;;17.52;88.81
63700;BME280;49845;47.130;142.766;2022-07-12T07:59:36;100462.06;;;17.52;89.58
63700;BME280;49845;47.130;142.766;2022-07-12T08:02:06;100455.69;;;17.57;89.45
63700;BME280;49845;47.130;142.766;2022-07-12T08:04:41;100456.53;;;17.58;89.50
63700;BME280;49845;47.130;142.766;2022-07-12T08:07:11;100458.03;;;17.43;89.49
63700;BME280;49845;47.130;142.766;2022-07-12T08:10:02;100458.16;;;17.40;90.09
63700;BME280;49845;47.130;142.766;2022-07-12T08:12:34;100463.69;;;17.34;90.16
63700;BME280;49845;47.130;142.766;2022-07-12T08:15:05;100453.50;;;17.24;90.83
63700;BME280;49845;47.130;142.766;2022-07-12T08:17:36;100463.44;;;17.40;91.11
63700;BME280;49845;47.130;142.766;2022-07-12T08:20:14;100468.72;;;17.40;91.12
63700;BME280;49845;47.130;142.766;2022-07-12T08:23:04;100472.13;;;17.42;90.89
63700;BME280;49845;47.130;142.766;2022-07-12T08:25:35;100472.41;;;17.36;90.63
63700;BME280;49845;47.130;142.766;2022-07-12T08:28:07;100474.75;;;17.21;91.18
63700;BME280;49845;47.130;142.766;2022-07-12T08:30:38;100468.00;;;17.14;91.29
63700;BME280;49845;47.130;142.766;2022-07-12T08:33:14;100467.88;;;17.17;91.48
63700;BME280;49845;47.130;142.766;2022-07-12T08:35:45;100460.88;;;17.16;91.58
63700;BME280;49845;47.130;142.766;2022-07-12T08:38:15;100471.19;;;17.22;91.64
63700;BME280;49845;47.130;142.766;2022-07-12T08:40:46;100469.81;;;17.12;91.33
63700;BME280;49845;47.130;142.766;2022-07-12T08:43:18;100476.97;;;16.88;92.44
63700;BME280;49845;47.130;142.766;2022-07-12T08:45:55;100487.00;;;16.78;93.07
63700;BME280;49845;47.130;142.766;2022-07-12T08:48:32;100494.22;;;16.73;93.34
63700;BME280;49845;47.130;142.766;2022-07-12T08:51:04;100487.31;;;16.69;93.86
63700;BME280;49845;47.130;142.766;2022-07-12T08:53:35;100491.78;;;16.67;94.07
63700;BME280;49845;47.130;142.766;2022-07-12T08:56:07;100498.69;;;16.71;94.25
63700;BME280;49845;47.130;142.766;2022-07-12T08:59:12;100503.16;;;16.69;94.22
63700;BME280;49845;47.130;142.766;2022-07-12T09:01:45;100497.88;;;16.69;94.75
63700;BME280;49845;47.130;142.766;2022-07-12T09:04:17;100501.44;;;16.68;94.38
63700;BME280;49845;47.130;142.766;2022-07-12T09:06:48;100506.84;;;16.65;94.00
63700;BME280;49845;47.130;142.766;2022-07-12T09:09:27;100510.63;;;16.58;94.28
63700;BME280;49845;47.130;142.766;2022-07-12T09:11:58;100520.38;;;16.56;94.51
63700;BME280;49845;47.130;142.766;2022-07-12T09:14:30;100517.88;;;16.51;94.41
63700;BME280;49845;47.130;142.766;2022-07-12T09:17:03;100521.66;;;16.44;94.65
63700;BME280;49845;47.130;142.766;2022-07-12T09:19:38;100526.94;;;16.44;94.94
63700;BME280;49845;47.130;142.766;2022-07-12T09:22:15;100518.41;;;16.37;95.36
63700;BME280;49845;47.130;142.766;2022-07-12T09:24:46;100484.09;;;16.14;95.37
63700;BME280;49845;47.130;142.766;2022-07-12T09:27:23;100517.75;;;16.31;95.74
63700;BME280;49845;47.130;142.766;2022-07-12T09:29:56;100525.72;;;16.29;96.10
63700;BME280;49845;47.130;142.766;2022-07-12T09:32:27;100522.25;;;16.27;96.02
63700;BME280;49845;47.130;142.766;2022-07-12T09:35:14;100518.94;;;16.22;96.31
63700;BME280;49845;47.130;142.766;2022-07-12T09:38:08;100516.38;;;16.21;96.47
63700;BME280;49845;47.130;142.766;2022-07-12T09:40:39;100519.88;;;16.21;96.70
63700;BME280;49845;47.130;142.766;2022-07-12T09:43:11;100523.44;;;16.20;96.84
63700;BME280;49845;47.130;142.766;2022-07-12T09:45:44;100520.78;;;16.20;96.84
63700;BME280;49845;47.130;142.766;2022-07-12T09:48:17;100526.00;;;16.22;96.92
63700;BME280;49845;47.130;142.766;2022-07-12T09:50:50;100472.25;;;16.01;96.87
63700;BME280;49845;47.130;142.766;2022-07-12T09:53:27;100486.25;;;16.03;97.08
63700;BME280;49845;47.130;142.766;2022-07-12T09:55:58;100520.44;;;16.29;96.97
63700;BME280;49845;47.130;142.766;2022-07-12T09:58:31;100527.50;;;16.29;96.88
63700;BME280;49845;47.130;142.766;2022-07-12T10:01:07;100517.09;;;16.24;97.04
63700;BME280;49845;47.130;142.766;2022-07-12T10:03:43;100520.56;;;16.26;97.27
63700;BME280;49845;47.130;142.766;2022-07-12T10:06:23;100507.84;;;16.12;97.13
63700;BME280;49845;47.130;142.766;2022-07-12T10:09:01;100499.03;;;16.13;97.73
63700;BME280;49845;47.130;142.766;2022-07-12T10:11:33;100506.91;;;16.15;97.49
63700;BME280;49845;47.130;142.766;2022-07-12T10:14:24;100500.13;;;16.08;97.96
63700;BME280;49845;47.130;142.766;2022-07-12T10:16:57;100505.16;;;16.14;97.99
63700;BME280;49845;47.130;142.766;2022-07-12T10:19:29;100491.25;;;16.10;97.92
63700;BME280;49845;47.130;142.766;2022-07-12T10:22:02;100455.59;;;15.75;98.03
63700;BME280;49845;47.130;142.766;2022-07-12T10:24:49;100503.91;;;16.01;98.03
63700;BME280;49845;47.130;142.766;2022-07-12T10:27:31;100476.22;;;15.87;98.23
63700;BME280;49845;47.130;142.766;2022-07-12T10:30:20;100502.97;;;16.02;98.53
63700;BME280;49845;47.130;142.766;2022-07-12T10:32:54;100434.91;;;15.63;98.57
63700;BME280;49845;47.130;142.766;2022-07-12T10:35:26;100501.25;;;16.01;98.79
63700;BME280;49845;47.130;142.766;2022-07-12T10:38:21;100499.59;;;15.98;98.60
63700;BME280;49845;47.130;142.766;2022-07-12T10:40:54;100500.63;;;15.92;98.93
63700;BME280;49845;47.130;142.766;2022-07-12T10:43:26;100501.47;;;15.94;99.22
63700;BME280;49845;47.130;142.766;2022-07-12T10:46:18;100470.63;;;15.71;99.03
63700;BME280;49845;47.130;142.766;2022-07-12T10:48:51;100425.97;;;15.42;98.91
63700;BME280;49845;47.130;142.766;2022-07-12T10:51:22;100507.78;;;15.90;99.11
63700;BME280;49845;47.130;142.766;2022-07-12T10:53:52;100514.84;;;15.88;99.08
63700;BME280;49845;47.130;142.766;2022-07-12T10:56:23;100516.44;;;15.92;99.21
63700;BME280;49845;47.130;142.766;2022-07-12T10:58:58;100515.59;;;15.92;98.80
63700;BME280;49845;47.130;142.766;2022-07-12T11:01:30;100469.94;;;15.65;99.20
63700;BME280;49845;47.130;142.766;2022-07-12T11:04:06;100523.44;;;15.95;99.11
63700;BME280;49845;47.130;142.766;2022-07-12T11:06:38;100517.22;;;15.96;99.02
63700;BME280;49845;47.130;142.766;2022-07-12T11:09:09;100464.91;;;15.59;98.91
63700;BME280;49845;47.130;142.766;2022-07-12T11:11:42;100514.84;;;15.88;98.86
63700;BME280;49845;47.130;142.766;2022-07-12T11:14:21;100523.66;;;15.87;99.10
63700;BME280;49845;47.130;142.766;2022-07-12T11:16:52;100518.38;;;15.87;99.37
63700;BME280;49845;47.130;142.766;2022-07-12T11:19:28;100507.16;;;15.82;99.16
63700;BME280;49845;47.130;142.766;2022-07-12T11:21:58;100512.41;;;15.82;99.40
63700;BME280;49845;47.130;142.766;2022-07-12T11:24:30;100513.34;;;15.81;99.81
63700;BME280;49845;47.130;142.766;2022-07-12T11:27:01;100518.31;;;15.90;99.82
63700;BME280;49845;47.130;142.766;2022-07-12T11:29:32;100523.50;;;15.92;99.68
63700;BME280;49845;47.130;142.766;2022-07-12T11:32:04;100493.34;;;15.76;99.76
63700;BME280;49845;47.130;142.766;2022-07-12T11:34:40;100511.19;;;15.92;99.30
63700;BME280;49845;47.130;142.766;2022-07-12T11:37:11;100510.25;;;15.95;99.19
63700;BME280;49845;47.130;142.766;2022-07-12T11:39:42;100520.00;;;15.91;98.90
63700;BME280;49845;47.130;142.766;2022-07-12T11:42:12;100527.09;;;15.89;99.08
63700;BME280;49845;47.130;142.766;2022-07-12T11:44:45;100516.56;;;15.89;99.24
63700;BME280;49845;47.130;142.766;2022-07-12T11:47:17;100516.44;;;15.92;99.11
63700;BME280;49845;47.130;142.766;2022-07-12T11:49:51;100523.63;;;15.89;98.98
63700;BME280;49845;47.130;142.766;2022-07-12T11:52:23;100517.50;;;15.88;98.90
63700;BME280;49845;47.130;142.766;2022-07-12T11:54:54;100512.34;;;15.85;98.79
63700;BME280;49845;47.130;142.766;2022-07-12T11:57:25;100513.34;;;15.81;98.68
63700;BME280;49845;47.130;142.766;2022-07-12T11:59:55;100529.16;;;15.81;98.66
63700;BME280;49845;47.130;142.766;2022-07-12T12:02:29;100529.25;;;15.78;98.88
63700;BME280;49845;47.130;142.766;2022-07-12T12:05:01;100522.25;;;15.77;99.22
63700;BME280;49845;47.130;142.766;2022-07-12T12:07:33;100524.84;;;15.79;99.07
63700;BME280;49845;47.130;142.766;2022-07-12T12:10:04;100456.03;;;15.35;98.95
63700;BME280;49845;47.130;142.766;2022-07-12T12:12:37;100517.28;;;15.68;99.30
63700;BME280;49845;47.130;142.766;2022-07-12T12:15:09;100515.66;;;15.64;99.34
63700;BME280;49845;47.130;142.766;2022-07-12T12:17:44;100514.97;;;15.57;99.26
63700;BME280;49845;47.130;142.766;2022-07-12T12:20:19;100521.13;;;15.58;99.60
63700;BME280;49845;47.130;142.766;2022-07-12T12:22:50;100514.22;;;15.53;99.83
63700;BME280;49845;47.130;142.766;2022-07-12T12:25:23;100512.31;;;15.59;100.00
63700;BME280;49845;47.130;142.766;2022-07-12T12:27:55;100505.56;;;15.50;99.83
63700;BME280;49845;47.130;142.766;2022-07-12T12:30:50;100512.53;;;15.52;100.00
63700;BME280;49845;47.130;142.766;2022-07-12T12:33:37;100519.50;;;15.53;100.00
63700;BME280;49845;47.130;142.766;2022-07-12T12:36:20;100511.00;;;15.45;99.96
63700;BME280;49845;47.130;142.766;2022-07-12T12:38:52;100523.25;;;15.46;100.00
63700;BME280;49845;47.130;142.766;2022-07-12T12:41:24;100512.72;;;15.46;100.00
63700;BME280;49845;47.130;142.766;2022-07-12T12:43:59;100521.44;;;15.48;100.00
63700;BME280;49845;47.130;142.766;2022-07-12T12:46:46;100497.19;;;15.37;100.00
63700;BME280;49845;47.130;142.766;2022-07-12T12:49:17;100530.97;;;15.52;100.00
63700;BME280;49845;47.130;142.766;2022-07-12T12:51:54;100531.84;;;15.51;100.00
63700;BME280;49845;47.130;142.766;2022-07-12T12:54:32;100545.13;;;15.48;99.91
63700;BME280;49845;47.130;142.766;2022-07-12T12:57:03;100542.91;;;15.35;99.79
63700;BME280;49845;47.130;142.766;2022-07-12T12:59:35;100542.03;;;15.36;100.00